FYWH

Windhoek/Hosea Kutako International Airport

Airport
ICAO code
FYWH
IATA Code
WDH
Summary
ICAO Region
AFI
ICAO Territory
Location

Windhoek, Khomas

Serving
Windhoek
Elevation
5640 ft
Coordinates
22° 28' 48" S , 17° 28' 15" E
KCC
Metar
FYWH 271900Z 00000KT CAVOK 09/M04 Q1029

Hosea Kutako International Airport is the main international airport of Namibia, serving the capital city Windhoek.

Climatology

Hot, semi-arid/Steppe climate (Köppen climate classification BSh)

Runways

Designator Length Width Surface Rops
16/34 1524 30 ASP Yes/Yes
8/26 4575 45 ASP Yes/Yes

Airport map

Aerial View

SKYbrary Partners:

Safety knowledge contributed by: